Jeffersonville, Georgia
Current Conditions -  °F | °C
As of 4:58 PM on Tuesday 25 Nov 2014 (Local Time) from KWRB Reporting Station
Drizzle Drizzle  
Wind Chill: 11°   Ceiling: Unl
Heat Index: 11°   Visibility: 10mi
Dew Point:   Wind: 0mph
Humidity: 88%   Direction: NA
Pressure: 30.01"   Gusts: NA
Location:  32.69°N, 83.35°W
Report Text: KWRB 252158Z AUTO 00000KT 10SM -DZ FEW029 SCT100 11/09 A3001 RMK AO2 RAB2112E2150DZE2112B2150 SLP165 P0002 T01080089
Loading
Personal Weather Stations






























Interactive Weather Map New forecast layout! Learn more

10-Day Weather Forecast

Advertisements
Track Severe Weather on mobile